Time;durP1;ratioP1;P1;durP2;ratioP2;P2;SDS_P1;SDS_P2;PMS_P1;PMS_P2;Temp;Humidity;BMP_temperature;BMP_pressure;BME280_temperature;BME280_humidity;BME280_pressure;Samples;Min_cycle;Max_cycle;Signal;HPM_P1;HPM_P2
2021/09/21 00:00:22;;;;;;;7.30;5.80;;;;;;;19.01;53.49;99655.22;5088011;28;20016;-71
2021/09/21 00:02:48;;;;;;;9.48;5.68;;;;;;;18.94;52.88;99660.75;5091074;28;20043;-71
2021/09/21 00:05:13;;;;;;;8.65;6.20;;;;;;;19.00;52.13;99664.09;5092132;28;20031;-71
2021/09/21 00:07:39;;;;;;;7.25;5.22;;;;;;;18.93;51.60;99664.81;5090602;28;20027;-71
2021/09/21 00:10:07;;;;;;;7.05;5.35;;;;;;;18.91;49.84;99661.53;5091160;28;20587;-71
2021/09/21 00:12:33;;;;;;;8.05;5.57;;;;;;;18.83;50.02;99657.00;5086788;28;20525;-71
2021/09/21 00:14:58;;;;;;;6.60;4.88;;;;;;;18.98;49.24;99660.81;5090088;28;20020;-71
2021/09/21 00:17:24;;;;;;;9.30;5.40;;;;;;;18.88;49.79;99660.28;5090833;28;20442;-71
2021/09/21 00:19:49;;;;;;;9.02;5.80;;;;;;;18.85;49.96;99675.25;5087637;28;20016;-71
2021/09/21 00:22:15;;;;;;;7.53;5.57;;;;;;;18.62;50.36;99667.69;5089071;28;20467;-71
2021/09/21 00:24:40;;;;;;;7.22;5.20;;;;;;;18.69;49.88;99672.63;5083388;28;20445;-71
2021/09/21 00:27:06;;;;;;;7.32;4.75;;;;;;;18.58;50.32;99666.81;5084420;28;20051;-71
2021/09/21 00:29:31;;;;;;;8.93;6.00;;;;;;;18.57;50.24;99668.00;5084431;28;20016;-71
2021/09/21 00:32:01;;;;;;;7.03;5.13;;;;;;;18.56;50.27;99668.41;5083831;28;20020;-71
2021/09/21 00:34:37;;;;;;;7.60;5.32;;;;;;;18.53;50.13;99664.31;5081990;28;20103;-71
2021/09/21 00:37:03;;;;;;;6.30;4.80;;;;;;;18.66;50.11;99657.19;5082742;28;20035;-71
2021/09/21 00:39:28;;;;;;;6.88;5.47;;;;;;;18.58;50.27;99655.50;5081244;28;20114;-71
2021/09/21 00:41:55;;;;;;;5.85;4.95;;;;;;;18.46;50.38;99653.72;5075263;28;20024;-71
2021/09/21 00:44:21;;;;;;;6.50;5.28;;;;;;;18.39;50.54;99650.78;5088182;28;20460;-71
2021/09/21 00:46:48;;;;;;;6.35;5.07;;;;;;;18.36;50.62;99654.38;5074536;28;20028;-71
2021/09/21 00:49:13;;;;;;;7.18;4.65;;;;;;;18.29;50.70;99643.78;5085795;28;20499;-71
2021/09/21 00:51:39;;;;;;;8.57;5.50;;;;;;;18.20;50.92;99654.56;5084107;28;20071;-71
2021/09/21 00:54:05;;;;;;;7.32;5.65;;;;;;;18.24;50.69;99652.63;5079700;28;20094;-71
2021/09/21 00:56:31;;;;;;;8.18;5.18;;;;;;;18.20;50.45;99663.06;5070129;28;20444;-71
2021/09/21 00:58:57;;;;;;;5.55;4.72;;;;;;;18.23;50.11;99654.63;5082482;28;20052;-71
2021/09/21 01:01:23;;;;;;;6.68;5.03;;;;;;;18.13;50.33;99665.81;5078775;28;20076;-71
2021/09/21 01:03:49;;;;;;;7.28;6.25;;;;;;;18.10;50.75;99670.19;5091046;28;20024;-71
2021/09/21 01:06:15;;;;;;;8.48;5.63;;;;;;;18.20;50.35;99663.88;5088852;28;20085;-71
2021/09/21 01:08:41;;;;;;;8.07;5.72;;;;;;;18.03;50.75;99672.91;5090034;28;20024;-71
2021/09/21 01:11:14;;;;;;;6.85;5.40;;;;;;;18.19;50.43;99673.56;5089714;28;20031;-71
2021/09/21 01:13:40;;;;;;;6.80;5.43;;;;;;;18.15;49.91;99678.34;5088935;28;20068;-71
2021/09/21 01:16:06;;;;;;;10.35;6.32;;;;;;;18.13;50.67;99675.09;5091355;28;20024;-71
2021/09/21 01:18:32;;;;;;;6.97;5.72;;;;;;;18.08;50.93;99681.09;5086847;28;20572;-71
2021/09/21 01:21:16;;;;;;;8.23;6.05;;;;;;;18.12;50.14;99686.81;5091307;28;20118;-71
2021/09/21 01:23:49;;;;;;;6.68;5.80;;;;;;;18.14;49.99;99690.88;5084421;28;20501;-71
2021/09/21 01:26:16;;;;;;;7.40;5.78;;;;;;;18.01;50.63;99684.59;5089948;28;20020;-71
2021/09/21 01:28:42;;;;;;;7.25;5.15;;;;;;;17.96;50.79;99677.25;5089657;28;20028;-71
2021/09/21 01:31:07;;;;;;;8.13;6.13;;;;;;;18.09;50.52;99680.69;5091302;28;20023;-71
2021/09/21 01:33:33;;;;;;;13.32;6.32;;;;;;;18.10;50.22;99678.69;5089601;28;20089;-71
2021/09/21 01:35:59;;;;;;;8.23;6.28;;;;;;;17.92;50.63;99681.22;5090678;28;20012;-71
2021/09/21 01:38:24;;;;;;;7.28;5.88;;;;;;;18.01;50.55;99690.25;5090743;28;20102;-71
2021/09/21 01:40:50;;;;;;;7.07;5.60;;;;;;;17.95;50.71;99695.44;5089827;28;20024;-71
2021/09/21 01:43:15;;;;;;;11.00;6.22;;;;;;;17.92;50.62;99693.38;5088603;28;20493;-71
2021/09/21 01:45:41;;;;;;;13.68;5.82;;;;;;;17.94;50.90;99695.78;5090158;28;20055;-71
2021/09/21 01:48:06;;;;;;;7.30;5.45;;;;;;;17.99;50.94;99700.31;5091087;28;20489;-71
2021/09/21 01:50:53;;;;;;;7.72;6.25;;;;;;;17.90;51.26;99701.41;5090613;28;20016;-71
2021/09/21 01:58:49;;;;;;;7.47;5.75;;;;;;;17.99;50.91;99698.31;5092004;28;20039;-71
2021/09/21 02:01:16;;;;;;;8.30;5.38;;;;;;;17.88;51.00;99705.81;5085298;28;20116;-71
2021/09/21 02:03:43;;;;;;;7.53;5.75;;;;;;;17.67;51.82;99712.75;5087160;28;20437;-71
2021/09/21 02:06:09;;;;;;;9.43;6.88;;;;;;;17.73;51.55;99702.72;5094001;28;20015;-71
2021/09/21 02:08:35;;;;;;;9.52;5.60;;;;;;;17.62;51.64;99708.22;5094610;28;20507;-71
2021/09/21 02:11:00;;;;;;;8.98;6.28;;;;;;;17.65;51.09;99706.66;5082557;28;20032;-71
2021/09/21 02:13:26;;;;;;;8.52;5.57;;;;;;;17.53;51.13;99705.66;5094590;28;20584;-71
2021/09/21 02:15:52;;;;;;;8.38;6.32;;;;;;;17.59;50.84;99708.97;5094413;28;20031;-71
2021/09/21 02:18:17;;;;;;;7.72;6.15;;;;;;;17.47;51.40;99718.44;5094170;28;20016;-71
2021/09/21 02:20:43;;;;;;;8.00;6.00;;;;;;;17.39;51.78;99717.50;5094460;28;20020;-71
2021/09/21 02:23:08;;;;;;;10.50;6.70;;;;;;;17.41;51.60;99719.97;5093068;28;20024;-71
2021/09/21 02:25:34;;;;;;;10.07;7.70;;;;;;;17.32;51.86;99722.22;5085484;28;20075;-71
2021/09/21 02:27:59;;;;;;;10.15;6.95;;;;;;;17.22;52.33;99713.16;5089075;28;20037;-71
2021/09/21 02:30:26;;;;;;;10.52;7.30;;;;;;;17.28;52.28;99721.34;5094354;28;20016;-71
2021/09/21 02:32:51;;;;;;;12.60;6.95;;;;;;;17.22;52.06;99721.63;5094483;28;20043;-71
2021/09/21 02:35:18;;;;;;;10.88;7.30;;;;;;;17.02;52.42;99722.88;5083922;28;20043;-71
2021/09/21 02:37:44;;;;;;;9.95;7.22;;;;;;;16.94;53.04;99722.69;5094482;28;20520;-71
2021/09/21 02:40:11;;;;;;;11.07;7.13;;;;;;;17.03;52.63;99725.28;5092491;28;20031;-71
2021/09/21 02:42:37;;;;;;;9.52;6.82;;;;;;;17.02;52.90;99728.50;5092500;28;20036;-71
2021/09/21 02:45:04;;;;;;;9.50;7.13;;;;;;;16.93;52.83;99728.69;5093593;28;20020;-71
2021/09/21 02:47:29;;;;;;;10.73;7.82;;;;;;;16.88;52.93;99731.81;5093164;28;20384;-71
2021/09/21 02:49:55;;;;;;;12.93;7.30;;;;;;;16.82;53.21;99734.13;5093874;28;20068;-71
2021/09/21 02:52:20;;;;;;;9.02;6.57;;;;;;;16.81;52.91;99735.31;5093958;28;20466;-71
2021/09/21 02:54:46;;;;;;;9.82;6.75;;;;;;;16.89;52.93;99737.09;5093839;28;20024;-71
2021/09/21 02:57:11;;;;;;;10.40;7.35;;;;;;;16.84;53.00;99743.88;5093606;28;20024;-71
2021/09/21 02:59:37;;;;;;;11.23;8.15;;;;;;;16.78;53.54;99744.53;5093975;28;20020;-71
2021/09/21 03:02:02;;;;;;;10.63;8.32;;;;;;;16.79;53.61;99746.97;5093394;28;20499;-71
2021/09/21 03:04:31;;;;;;;9.85;7.55;;;;;;;16.79;53.65;99746.16;5092334;28;20110;-71
2021/09/21 03:07:09;;;;;;;15.82;8.50;;;;;;;16.75;53.64;99745.25;5087276;28;20055;-71
2021/09/21 03:10:09;;;;;;;9.88;7.70;;;;;;;16.68;53.85;99743.94;5080964;28;20055;-71
2021/09/21 03:12:42;;;;;;;10.95;8.05;;;;;;;16.66;53.75;99746.31;5091058;28;20463;-71
2021/09/21 03:17:52;;;;;;;10.43;7.15;;;;;;;16.80;53.49;99770.41;5092581;28;20046;-71
2021/09/21 03:20:17;;;;;;;10.30;7.25;;;;;;;16.74;53.81;99769.88;5093211;28;20024;-71
2021/09/21 03:22:43;;;;;;;10.88;7.60;;;;;;;16.79;53.48;99768.78;5093210;28;20567;-71
2021/09/21 03:25:11;;;;;;;9.82;7.40;;;;;;;16.81;53.71;99775.66;5092651;28;20023;-71
2021/09/21 03:27:36;;;;;;;10.82;7.53;;;;;;;16.93;53.00;99771.06;5085164;28;20074;-71
2021/09/21 03:30:02;;;;;;;9.38;7.05;;;;;;;16.91;52.97;99777.09;5092805;28;20020;-71
2021/09/21 03:32:28;;;;;;;11.65;7.18;;;;;;;17.06;52.45;99778.22;5092836;28;20494;-71
2021/09/21 03:34:53;;;;;;;9.80;6.90;;;;;;;16.89;53.03;99773.81;5091516;28;20024;-71
2021/09/21 03:37:19;;;;;;;9.77;7.18;;;;;;;16.89;53.33;99779.47;5091689;28;20016;-71
2021/09/21 03:39:45;;;;;;;7.80;6.30;;;;;;;17.03;52.82;99776.16;5092815;28;20032;-71
2021/09/21 03:42:12;;;;;;;9.27;6.90;;;;;;;16.97;53.49;99792.56;5092833;28;20023;-71
2021/09/21 03:44:38;;;;;;;11.20;7.15;;;;;;;16.94;53.45;99790.47;5092528;28;20560;-71
2021/09/21 03:47:04;;;;;;;14.27;6.53;;;;;;;16.89;53.49;99792.78;5091733;28;20103;-71
2021/09/21 03:49:29;;;;;;;9.25;6.72;;;;;;;16.90;53.39;99791.59;5091603;28;20059;-71
2021/09/21 03:51:55;;;;;;;10.60;7.32;;;;;;;16.92;53.74;99792.03;5080486;28;20055;-71
2021/09/21 03:54:20;;;;;;;10.32;6.53;;;;;;;16.87;53.85;99787.50;5092286;28;20027;-71
2021/09/21 03:56:46;;;;;;;9.70;7.20;;;;;;;16.84;53.70;99791.91;5089875;28;20028;-71
2021/09/21 03:59:12;;;;;;;9.75;6.47;;;;;;;16.80;53.79;99787.34;5092653;28;20712;-71
2021/09/21 04:01:37;;;;;;;11.80;6.30;;;;;;;16.79;53.74;99797.81;5091039;28;20044;-71
2021/09/21 04:04:03;;;;;;;13.38;6.90;;;;;;;16.78;53.72;99801.03;5091809;28;20043;-71
2021/09/21 04:06:28;;;;;;;9.63;7.32;;;;;;;16.73;53.78;99810.59;5091512;28;20482;-71
2021/09/21 04:08:54;;;;;;;15.35;7.75;;;;;;;16.59;54.62;99811.09;5087271;28;20165;-71
2021/09/21 04:11:21;;;;;;;10.23;6.82;;;;;;;16.60;53.96;99831.69;5092358;28;20020;-71
2021/09/21 04:13:48;;;;;;;9.35;6.93;;;;;;;16.73;53.86;99826.72;5083572;28;20112;-71
2021/09/21 04:16:13;;;;;;;11.63;7.20;;;;;;;16.52;54.37;99825.84;5092160;28;20426;-71
2021/09/21 04:18:39;;;;;;;10.13;7.53;;;;;;;16.52;54.24;99820.22;5091017;28;20032;-71
2021/09/21 04:21:05;;;;;;;17.67;7.18;;;;;;;16.49;54.48;99817.28;5092079;28;20032;-71
2021/09/21 04:23:30;;;;;;;16.45;6.75;;;;;;;16.42;54.51;99826.41;5091907;28;20082;-71
2021/09/21 04:25:56;;;;;;;11.60;6.90;;;;;;;16.36;54.75;99819.44;5091931;28;20099;-71
2021/09/21 04:28:22;;;;;;;12.60;6.32;;;;;;;16.44;54.84;99814.78;5092176;28;20081;-71
2021/09/21 04:30:49;;;;;;;9.55;7.00;;;;;;;16.44;54.70;99812.75;5088456;28;20027;-70
2021/09/21 04:33:15;;;;;;;11.30;6.78;;;;;;;16.45;54.65;99820.03;5080900;28;20419;-70
2021/09/21 04:35:41;;;;;;;21.35;7.88;;;;;;;16.44;54.72;99828.88;5071289;28;20028;-70
2021/09/21 04:38:08;;;;;;;10.63;5.90;;;;;;;16.49;54.47;99834.25;5087888;28;20020;-70
2021/09/21 04:40:33;;;;;;;9.98;6.20;;;;;;;16.51;54.53;99829.03;5076051;28;20036;-70
2021/09/21 04:42:59;;;;;;;9.32;6.60;;;;;;;16.45;54.07;99833.34;5083049;28;20399;-70
2021/09/21 04:45:24;;;;;;;11.43;6.40;;;;;;;16.51;53.90;99827.03;5088610;28;20027;-70
2021/09/21 04:47:50;;;;;;;9.68;5.40;;;;;;;16.48;54.07;99843.91;5088929;28;20039;-70
2021/09/21 04:50:16;;;;;;;7.68;5.75;;;;;;;16.53;53.59;99840.78;5091546;28;20031;-70
2021/09/21 04:52:41;;;;;;;13.00;5.97;;;;;;;16.57;53.36;99841.69;5078282;28;20023;-71
2021/09/21 04:55:08;;;;;;;11.65;5.72;;;;;;;16.62;52.98;99838.59;5083721;28;20032;-71
2021/09/21 04:57:34;;;;;;;14.73;6.32;;;;;;;16.60;53.40;99845.81;5089768;28;20051;-69
2021/09/21 04:59:59;;;;;;;8.30;5.25;;;;;;;16.61;53.04;99839.78;5090807;28;20153;-70
2021/09/21 05:02:25;;;;;;;25.85;7.40;;;;;;;16.65;53.23;99852.00;5090404;28;20044;-69
2021/09/21 05:04:50;;;;;;;12.85;6.25;;;;;;;16.67;52.88;99851.59;5090825;28;20024;-69
2021/09/21 05:07:16;;;;;;;12.80;5.75;;;;;;;16.48;53.61;99853.19;5083217;28;20024;-70
2021/09/21 05:09:42;;;;;;;8.25;5.63;;;;;;;16.56;53.41;99857.81;5089354;28;20043;-69
2021/09/21 05:12:08;;;;;;;15.63;6.65;;;;;;;16.77;53.07;99864.31;5090613;28;20518;-69
2021/09/21 05:14:33;;;;;;;14.25;6.75;;;;;;;16.77;52.68;99867.16;5080338;28;20024;-69
2021/09/21 05:16:59;;;;;;;20.50;7.43;;;;;;;16.80;52.91;99864.41;5090444;28;20023;-69
2021/09/21 05:19:25;;;;;;;11.82;6.13;;;;;;;16.73;53.06;99860.63;5088306;28;20092;-70
2021/09/21 05:21:50;;;;;;;16.00;7.30;;;;;;;16.84;53.43;99872.97;5089581;28;20060;-70
2021/09/21 05:24:16;;;;;;;8.82;6.05;;;;;;;16.74;53.38;99888.50;5089937;28;20481;-69
2021/09/21 05:26:42;;;;;;;13.35;6.85;;;;;;;16.84;53.01;99882.28;5087346;28;20055;-69
2021/09/21 05:29:07;;;;;;;9.43;5.90;;;;;;;16.93;52.83;99893.38;5083390;28;20154;-70
2021/09/21 05:31:33;;;;;;;9.27;6.65;;;;;;;16.98;52.64;99893.06;5081020;28;20040;-70
2021/09/21 05:34:00;;;;;;;8.20;6.13;;;;;;;17.10;52.22;99888.53;5083996;28;20115;-69
2021/09/21 05:36:26;;;;;;;11.10;5.97;;;;;;;17.16;52.10;99887.06;5087579;28;20110;-70
2021/09/21 05:38:51;;;;;;;7.25;5.50;;;;;;;17.15;51.96;99888.25;5093228;28;20103;-70
2021/09/21 05:41:17;;;;;;;9.27;5.78;;;;;;;17.10;51.92;99897.84;5090115;28;20099;-70
2021/09/21 05:43:42;;;;;;;8.00;5.45;;;;;;;17.17;51.87;99894.34;5081391;28;20027;-70
2021/09/21 05:46:08;;;;;;;7.15;5.43;;;;;;;17.21;51.88;99897.25;5087334;28;20468;-70
2021/09/21 05:48:33;;;;;;;11.18;5.03;;;;;;;17.25;51.57;99895.31;5092875;28;20028;-70
2021/09/21 05:50:59;;;;;;;9.30;5.97;;;;;;;17.20;51.79;99907.72;5082905;28;20426;-70
2021/09/21 05:53:24;;;;;;;9.55;5.80;;;;;;;17.16;51.80;99904.00;5089504;28;20022;-70
2021/09/21 05:55:50;;;;;;;9.63;6.10;;;;;;;17.19;52.23;99905.25;5093632;28;20757;-70
2021/09/21 05:58:15;;;;;;;16.70;5.47;;;;;;;17.31;51.67;99913.59;5092399;28;20016;-70
2021/09/21 06:00:41;;;;;;;9.88;5.47;;;;;;;17.28;51.85;99908.69;5084838;28;20023;-70
2021/09/21 06:03:06;;;;;;;6.72;5.38;;;;;;;17.33;51.18;99896.28;5092998;28;20587;-70
2021/09/21 06:05:32;;;;;;;10.23;5.57;;;;;;;17.41;51.40;99909.41;5086256;28;20031;-71
2021/09/21 06:07:58;;;;;;;20.38;7.00;;;;;;;17.28;51.65;99900.22;5090237;28;20035;-70
2021/09/21 06:10:24;;;;;;;16.65;6.07;;;;;;;17.38;52.04;99904.50;5088213;28;20498;-71
2021/09/21 06:12:50;;;;;;;13.63;5.45;;;;;;;17.40;51.37;99907.75;5090942;28;20023;-71
2021/09/21 06:15:19;;;;;;;8.60;6.28;;;;;;;17.36;51.21;99910.50;5087841;28;20141;-71
2021/09/21 06:17:45;;;;;;;9.18;6.00;;;;;;;17.29;51.62;99909.53;5094053;28;20384;-70
2021/09/21 06:20:12;;;;;;;8.23;6.65;;;;;;;17.21;51.60;99917.84;5089824;28;20104;-71
2021/09/21 06:22:42;;;;;;;9.90;5.43;;;;;;;17.21;51.70;99923.50;5087018;28;20046;-70
2021/09/21 06:25:09;;;;;;;13.52;5.80;;;;;;;17.25;51.62;99924.41;5087539;28;20036;-70
2021/09/21 06:27:35;;;;;;;10.25;5.60;;;;;;;17.10;51.66;99922.44;5087305;28;20310;-70
2021/09/21 06:30:04;;;;;;;8.60;5.82;;;;;;;17.16;51.94;99920.13;5086551;28;20036;-70
2021/09/21 06:32:30;;;;;;;17.83;6.05;;;;;;;17.26;52.13;99922.38;5085583;28;20032;-70
2021/09/21 06:34:55;;;;;;;11.10;5.25;;;;;;;17.26;51.63;99923.22;5090880;28;20046;-71
2021/09/21 06:37:21;;;;;;;16.23;7.22;;;;;;;17.35;51.65;99928.66;5093484;28;20020;-70
2021/09/21 06:39:46;;;;;;;15.18;5.97;;;;;;;17.37;51.50;99939.56;5092941;28;20070;-70
2021/09/21 06:42:12;;;;;;;9.88;5.43;;;;;;;17.28;51.24;99922.84;5092008;28;20501;-70
2021/09/21 06:44:37;;;;;;;7.40;5.50;;;;;;;17.30;51.36;99925.31;5091909;28;20028;-70
2021/09/21 06:47:04;;;;;;;8.90;5.90;;;;;;;17.41;50.70;99923.53;5081936;28;20038;-71
2021/09/21 06:49:30;;;;;;;7.85;5.57;;;;;;;17.36;50.46;99935.13;5091106;28;20037;-71
2021/09/21 06:51:56;;;;;;;8.20;5.25;;;;;;;17.57;50.05;99939.59;5084734;28;20035;-69
2021/09/21 06:54:22;;;;;;;10.23;5.20;;;;;;;17.56;49.96;99941.63;5091890;28;20529;-71
2021/09/21 06:56:47;;;;;;;20.23;7.40;;;;;;;17.64;50.13;99946.22;5092131;28;20059;-71
2021/09/21 06:59:13;;;;;;;8.73;5.75;;;;;;;17.61;50.80;99946.97;5073352;28;20411;-71
2021/09/21 07:01:38;;;;;;;7.10;6.13;;;;;;;17.79;50.59;99953.00;5072867;28;20040;-71
2021/09/21 07:04:04;;;;;;;6.65;5.70;;;;;;;17.88;49.23;99957.63;5081285;28;20067;-70
2021/09/21 07:06:29;;;;;;;11.30;7.03;;;;;;;17.82;49.72;99968.44;5082805;28;20107;-72
2021/09/21 07:08:54;;;;;;;9.73;6.03;;;;;;;18.02;48.92;99962.75;5087734;28;20465;-73
2021/09/21 07:11:21;;;;;;;12.48;7.15;;;;;;;18.13;48.56;99963.00;5088932;28;20123;-72
2021/09/21 07:13:47;;;;;;;12.32;7.28;;;;;;;18.17;48.35;99969.53;5088374;28;20035;-73
2021/09/21 07:16:12;;;;;;;12.68;5.95;;;;;;;18.35;47.74;99955.72;5087506;28;20030;-72
2021/09/21 07:18:38;;;;;;;8.43;5.13;;;;;;;18.42;46.90;99963.53;5076577;28;20036;-72
2021/09/21 07:21:05;;;;;;;7.63;5.78;;;;;;;18.55;47.06;99967.81;5089862;28;20051;-71
2021/09/21 07:23:31;;;;;;;12.18;4.90;;;;;;;18.55;45.17;99973.47;5085691;28;20198;-72
2021/09/21 07:25:57;;;;;;;6.72;4.88;;;;;;;18.49;45.73;99975.00;5084789;28;20081;-74
2021/09/21 07:28:22;;;;;;;6.10;4.85;;;;;;;18.60;45.66;99969.50;5085904;28;20479;-72
2021/09/21 07:30:48;;;;;;;5.95;4.97;;;;;;;18.57;46.54;99971.06;5084738;28;20027;-71
2021/09/21 07:33:15;;;;;;;6.28;4.90;;;;;;;18.55;46.25;99976.28;5088310;28;20374;-71
2021/09/21 07:35:41;;;;;;;7.53;5.82;;;;;;;18.63;45.84;99972.41;5083924;28;20043;-71
2021/09/21 07:38:07;;;;;;;5.78;4.45;;;;;;;18.84;45.09;99979.66;5089761;28;20020;-72
2021/09/21 07:40:35;;;;;;;7.32;4.60;;;;;;;18.86;44.90;99979.25;5084994;28;21081;-71
2021/09/21 07:43:05;;;;;;;8.50;4.82;;;;;;;18.84;44.69;99978.81;5080935;28;20039;-71
2021/09/21 07:45:32;;;;;;;10.02;5.13;;;;;;;19.07;43.83;99988.13;5090688;28;20028;-70
2021/09/21 07:47:58;;;;;;;6.70;4.68;;;;;;;19.32;42.64;99975.56;5092305;28;20028;-71
2021/09/21 07:50:26;;;;;;;4.93;3.85;;;;;;;19.45;41.37;99978.97;5085431;28;20625;-71
2021/09/21 07:52:55;;;;;;;5.35;4.38;;;;;;;19.55;40.70;99968.94;5092789;28;20395;-71
2021/09/21 07:55:20;;;;;;;4.22;3.67;;;;;;;19.74;40.63;99976.53;5083980;28;20487;-72
2021/09/21 07:57:47;;;;;;;7.15;3.80;;;;;;;19.85;40.26;99974.63;5085260;28;20110;-72
2021/09/21 08:00:16;;;;;;;8.05;4.60;;;;;;;19.90;40.46;99976.28;5086617;28;20084;-71
2021/09/21 08:02:42;;;;;;;5.88;3.72;;;;;;;19.92;39.96;99966.22;5080091;28;20453;-72
2021/09/21 08:05:08;;;;;;;10.35;4.00;;;;;;;20.08;39.42;99964.38;5088034;28;20016;-72
2021/09/21 08:07:34;;;;;;;4.68;3.63;;;;;;;20.13;39.94;99970.53;5088599;28;20467;-72
2021/09/21 08:10:00;;;;;;;6.75;3.67;;;;;;;20.06;39.27;99968.44;5087840;28;20092;-72
2021/09/21 08:12:29;;;;;;;6.97;3.20;;;;;;;20.08;39.15;99970.84;5085467;28;20089;-72
2021/09/21 08:14:56;;;;;;;11.83;3.63;;;;;;;19.95;39.62;99961.81;5082756;28;20036;-72
2021/09/21 08:17:22;;;;;;;5.80;3.55;;;;;;;20.02;39.91;99976.06;5087600;28;20440;-72
2021/09/21 08:19:52;;;;;;;6.85;3.85;;;;;;;19.98;39.99;99966.69;5085153;28;20020;-71
2021/09/21 08:22:18;;;;;;;3.97;3.45;;;;;;;20.02;39.35;99967.53;5083610;28;20031;-72
2021/09/21 08:24:45;;;;;;;7.35;3.75;;;;;;;20.09;39.75;99964.00;5079279;28;20103;-72
2021/09/21 08:27:10;;;;;;;7.93;4.03;;;;;;;19.85;40.39;99962.47;5090109;28;20059;-72
2021/09/21 08:29:36;;;;;;;5.75;3.75;;;;;;;19.88;39.94;99971.03;5091130;28;20445;-72
2021/09/21 08:32:02;;;;;;;5.65;3.47;;;;;;;20.04;39.55;99968.00;5089993;28;20116;-72
2021/09/21 08:34:27;;;;;;;7.35;4.10;;;;;;;20.08;40.17;99970.84;5086286;28;20504;-72
2021/09/21 08:36:53;;;;;;;8.98;4.30;;;;;;;20.04;39.89;99970.00;5084134;28;20030;-71
2021/09/21 08:39:20;;;;;;;8.80;3.75;;;;;;;20.12;39.54;99973.75;5082784;28;20020;-72
2021/09/21 08:41:50;;;;;;;4.00;3.53;;;;;;;20.23;39.23;99971.84;5081173;28;20096;-71
2021/09/21 08:44:16;;;;;;;5.97;3.57;;;;;;;20.15;39.54;99970.94;5091705;28;20024;-72
2021/09/21 08:46:43;;;;;;;7.25;3.58;;;;;;;20.51;38.75;99973.34;5088054;28;20039;-71
2021/09/21 08:49:09;;;;;;;10.05;3.13;;;;;;;20.40;38.71;99972.44;5088589;28;20024;-72
2021/09/21 08:51:34;;;;;;;6.68;3.63;;;;;;;20.55;39.36;99974.19;5090313;28;20107;-72
2021/09/21 08:54:00;;;;;;;5.63;3.75;;;;;;;20.77;38.45;99965.88;5077202;28;20024;-72
2021/09/21 08:56:25;;;;;;;6.15;4.18;;;;;;;20.62;38.51;99965.72;5075288;28;20028;-71
2021/09/21 08:58:59;;;;;;;3.72;3.20;;;;;;;20.80;38.06;99962.25;5073304;28;20052;-72
2021/09/21 09:01:24;;;;;;;17.50;4.05;;;;;;;20.93;38.39;99956.28;5073623;28;20049;-72
2021/09/21 09:03:57;;;;;;;4.28;3.67;;;;;;;21.06;37.79;99959.59;5084404;28;20024;-71
2021/09/21 09:06:23;;;;;;;5.50;4.03;;;;;;;21.18;37.87;99962.94;5083806;28;20050;-71
2021/09/21 09:08:49;;;;;;;3.67;2.90;;;;;;;21.24;37.99;99960.56;5081858;28;20047;-71
2021/09/21 09:11:21;;;;;;;5.03;3.78;;;;;;;21.20;37.47;99954.03;5091190;28;20019;-71
2021/09/21 09:13:57;;;;;;;8.02;3.33;;;;;;;21.24;37.85;99956.91;5072686;28;20120;-71
2021/09/21 09:16:25;;;;;;;8.07;4.43;;;;;;;21.15;37.71;99952.38;5078561;28;20031;-71
2021/09/21 09:19:06;;;;;;;5.60;3.67;;;;;;;21.13;37.63;99954.81;5081872;28;20044;-70
2021/09/21 09:21:34;;;;;;;9.57;3.28;;;;;;;21.10;37.85;99952.72;5080860;28;20483;-71
2021/09/21 09:24:01;;;;;;;15.60;4.13;;;;;;;21.20;37.83;99947.50;5083825;28;20116;-71
2021/09/21 09:26:26;;;;;;;6.88;3.63;;;;;;;21.31;37.41;99934.19;5089654;28;20038;-72
2021/09/21 09:28:54;;;;;;;4.88;3.47;;;;;;;21.38;37.34;99939.91;5089296;28;20491;-72
2021/09/21 09:31:41;;;;;;;6.70;3.22;;;;;;;21.70;36.83;99936.41;5089059;28;20074;-72
2021/09/21 09:34:25;;;;;;;7.10;3.92;;;;;;;21.85;37.14;99943.00;5075975;28;20024;-72
2021/09/21 09:37:02;;;;;;;8.35;3.28;;;;;;;21.83;37.16;99942.59;5086761;28;20028;-72
2021/09/21 09:39:29;;;;;;;4.32;3.50;;;;;;;22.09;36.21;99940.63;5083456;28;20036;-71
2021/09/21 09:41:57;;;;;;;4.65;3.35;;;;;;;22.14;36.28;99937.41;5084692;28;20456;-72
2021/09/21 09:44:26;;;;;;;4.03;2.92;;;;;;;21.88;36.66;99938.53;5084366;28;20035;-72
2021/09/21 09:47:03;;;;;;;3.70;3.35;;;;;;;22.02;36.10;99935.72;5084741;28;20395;-71
2021/09/21 09:49:42;;;;;;;5.05;3.72;;;;;;;21.94;35.93;99933.28;5082665;28;20039;-70
2021/09/21 09:52:11;;;;;;;3.15;2.85;;;;;;;22.24;35.90;99929.25;5083891;28;20106;-71
2021/09/21 09:54:39;;;;;;;4.28;3.35;;;;;;;22.43;35.94;99920.34;5083842;28;20039;-73
2021/09/21 09:57:06;;;;;;;6.57;2.95;;;;;;;22.65;35.54;99923.25;5084385;28;20217;-72
2021/09/21 09:59:31;;;;;;;4.32;3.10;;;;;;;22.65;35.32;99926.09;5076222;28;20502;-72
2021/09/21 10:01:57;;;;;;;7.15;3.30;;;;;;;22.56;34.83;99920.81;5082979;28;20043;-71
2021/09/21 10:04:24;;;;;;;4.75;3.35;;;;;;;22.36;35.31;99925.22;5080898;28;20028;-73
2021/09/21 10:06:49;;;;;;;7.60;2.85;;;;;;;22.43;35.01;99913.81;5083565;28;20380;-73
2021/09/21 10:09:15;;;;;;;5.03;3.00;;;;;;;22.59;34.67;99916.31;5087219;28;20051;-72
2021/09/21 10:11:44;;;;;;;7.40;2.67;;;;;;;22.70;34.11;99919.97;5083643;28;20031;-72
2021/09/21 10:14:12;;;;;;;3.77;2.80;;;;;;;22.63;34.19;99913.44;5072963;28;20020;-73
2021/09/21 10:16:54;;;;;;;5.38;2.95;;;;;;;22.64;33.98;99913.06;5073536;28;20438;-72
2021/09/21 10:19:24;;;;;;;5.47;3.22;;;;;;;22.81;33.77;99917.13;5074170;28;20024;-72
2021/09/21 10:21:53;;;;;;;3.97;2.80;;;;;;;22.74;33.31;99910.59;5093809;28;20028;-72
2021/09/21 10:24:34;;;;;;;3.13;2.83;;;;;;;22.81;33.54;99913.44;5082266;28;20038;-73
2021/09/21 10:27:05;;;;;;;3.40;3.10;;;;;;;22.72;33.65;99914.66;5089751;28;20035;-74
2021/09/21 10:29:31;;;;;;;4.22;2.15;;;;;;;22.78;33.46;99915.06;5086604;28;20029;-72
2021/09/21 10:31:57;;;;;;;4.40;2.42;;;;;;;22.90;33.25;99908.16;5087193;28;20680;-71
2021/09/21 10:34:23;;;;;;;3.08;2.78;;;;;;;23.02;33.48;99912.59;5086493;28;20032;-72
2021/09/21 10:36:55;;;;;;;4.05;2.95;;;;;;;22.91;33.10;99918.31;5087407;28;20031;-71
2021/09/21 10:39:23;;;;;;;5.32;3.05;;;;;;;23.11;32.95;99906.50;5086776;28;20093;-71
2021/09/21 10:42:04;;;;;;;7.22;3.83;;;;;;;23.13;33.02;99913.41;5086490;28;20483;-72
2021/09/21 10:44:32;;;;;;;3.72;2.45;;;;;;;23.23;32.36;99913.78;5087391;28;20016;-71
2021/09/21 10:47:03;;;;;;;8.90;2.60;;;;;;;23.43;32.51;99908.44;5088224;28;20427;-72
2021/09/21 10:49:29;;;;;;;4.38;3.28;;;;;;;23.59;32.78;99908.00;5088623;28;20024;-71
2021/09/21 10:52:00;;;;;;;7.35;3.45;;;;;;;23.67;32.98;99901.03;5093196;28;20028;-72
2021/09/21 10:54:30;;;;;;;7.65;3.58;;;;;;;23.76;32.76;99900.56;5091761;28;20119;-71
2021/09/21 10:57:16;;;;;;;4.43;3.28;;;;;;;23.83;32.43;99894.84;5087876;28;20111;-71
2021/09/21 10:59:56;;;;;;;3.78;3.35;;;;;;;23.91;32.37;99887.03;5100357;28;20051;-71
2021/09/21 11:02:23;;;;;;;3.53;3.22;;;;;;;23.93;31.77;99889.44;5086946;28;20052;-71
2021/09/21 11:04:49;;;;;;;3.67;3.28;;;;;;;23.80;31.84;99886.28;5092107;28;20028;-71
2021/09/21 11:07:15;;;;;;;5.35;3.10;;;;;;;23.69;33.43;99890.00;5092667;28;20093;-71
2021/09/21 11:09:42;;;;;;;7.45;3.58;;;;;;;23.96;32.75;99877.22;5089015;28;20444;-71
2021/09/21 11:12:10;;;;;;;8.27;3.92;;;;;;;23.86;32.73;99893.16;5090255;28;20024;-71
2021/09/21 11:14:41;;;;;;;4.00;3.00;;;;;;;23.77;32.70;99876.50;5083927;28;20044;-71
2021/09/21 11:17:08;;;;;;;8.63;3.88;;;;;;;24.00;32.34;99874.31;5085194;28;20034;-71
2021/09/21 11:19:34;;;;;;;6.03;3.05;;;;;;;24.03;31.76;99874.31;5088139;28;20115;-71
2021/09/21 11:22:04;;;;;;;4.38;2.78;;;;;;;24.01;31.70;99870.22;5090589;28;20031;-71
2021/09/21 11:24:29;;;;;;;5.47;3.55;;;;;;;23.92;32.09;99870.69;5089753;28;20486;-71
2021/09/21 11:27:04;;;;;;;5.03;3.55;;;;;;;23.82;32.01;99884.63;5091303;28;20039;-71
2021/09/21 11:29:31;;;;;;;3.00;2.78;;;;;;;23.98;31.83;99871.91;5089539;28;20028;-71
2021/09/21 11:31:57;;;;;;;5.18;3.03;;;;;;;24.01;31.88;99870.22;5081773;28;20464;-71
2021/09/21 11:34:29;;;;;;;3.95;2.95;;;;;;;24.14;31.76;99870.59;5091387;28;20020;-71
2021/09/21 11:37:05;;;;;;;3.92;2.40;;;;;;;24.23;31.43;99866.03;5095419;28;20090;-71
2021/09/21 11:39:31;;;;;;;5.20;3.15;;;;;;;24.16;31.16;99865.25;5086997;28;20032;-71